Siddonsburg, Pennsylvania
Current Conditions -  °F | °C
As of 7:56 PM on Saturday 22 Nov 2014 (Local Time) from KCXY Reporting Station
Clear Clear  
Wind Chill: 35°   Ceiling: Unl
Heat Index: 35°   Visibility: 10mi
Dew Point: 19°   Wind: 3mph
Humidity: 52%   Direction: 170°S
Pressure: 30.25"   Gusts: NA
Location:  40.0904°N, 77.0293°W
Report Text: KCXY 230056Z 17003KT 10SM CLR 02/M07 A3025 RMK AO2 SLP247 T00171072
Loading
Personal Weather Stations






























Interactive Weather Map New forecast layout! Learn more

10-Day Weather Forecast

Advertisements
Track Severe Weather on mobile